sensor_id;sensor_type;location;lat;lon;timestamp;pressure;altitude;pressure_sealevel;temperature;humidity
41250;BME280;26984;59.928;30.306;2022-09-09T00:01:49;102540.00;;;10.54;100.00
41250;BME280;26984;59.928;30.306;2022-09-09T00:04:21;102540.84;;;10.54;100.00
41250;BME280;26984;59.928;30.306;2022-09-09T00:06:57;102539.81;;;10.55;100.00
41250;BME280;26984;59.928;30.306;2022-09-09T00:09:26;102541.00;;;10.53;100.00
41250;BME280;26984;59.928;30.306;2022-09-09T00:11:56;102550.09;;;10.52;100.00
41250;BME280;26984;59.928;30.306;2022-09-09T00:14:32;102549.25;;;10.51;100.00
41250;BME280;26984;59.928;30.306;2022-09-09T00:17:02;102556.31;;;10.52;99.04
41250;BME280;26984;59.928;30.306;2022-09-09T00:19:32;102553.63;;;10.44;98.77
41250;BME280;26984;59.928;30.306;2022-09-09T00:22:12;102560.19;;;10.34;99.64
41250;BME280;26984;59.928;30.306;2022-09-09T00:24:44;102561.38;;;10.31;100.00
41250;BME280;26984;59.928;30.306;2022-09-09T00:27:15;102562.19;;;10.23;100.00
41250;BME280;26984;59.928;30.306;2022-09-09T00:29:45;102562.03;;;10.25;100.00
41250;BME280;26984;59.928;30.306;2022-09-09T00:32:16;102560.50;;;10.22;100.00
41250;BME280;26984;59.928;30.306;2022-09-09T00:34:46;102560.66;;;10.13;100.00
41250;BME280;26984;59.928;30.306;2022-09-09T00:37:15;102566.03;;;10.13;100.00
41250;BME280;26984;59.928;30.306;2022-09-09T00:39:44;102561.16;;;10.16;100.00
41250;BME280;26984;59.928;30.306;2022-09-09T00:42:14;102563.53;;;10.19;100.00
41250;BME280;26984;59.928;30.306;2022-09-09T00:44:53;102571.63;;;10.27;100.00
41250;BME280;26984;59.928;30.306;2022-09-09T00:47:36;102571.47;;;10.29;100.00
41250;BME280;26984;59.928;30.306;2022-09-09T00:50:09;102568.78;;;10.29;99.70
41250;BME280;26984;59.928;30.306;2022-09-09T00:52:45;102570.25;;;10.23;99.85
41250;BME280;26984;59.928;30.306;2022-09-09T00:55:16;102571.28;;;10.22;99.98
41250;BME280;26984;59.928;30.306;2022-09-09T00:57:46;102566.72;;;10.23;100.00
41250;BME280;26984;59.928;30.306;2022-09-09T01:00:19;102570.75;;;10.19;100.00
41250;BME280;26984;59.928;30.306;2022-09-09T01:02:53;102569.75;;;10.20;100.00
41250;BME280;26984;59.928;30.306;2022-09-09T01:05:25;102563.84;;;10.24;100.00
41250;BME280;26984;59.928;30.306;2022-09-09T01:07:56;102562.19;;;10.23;100.00
41250;BME280;26984;59.928;30.306;2022-09-09T01:10:27;102564.06;;;10.31;100.00
41250;BME280;26984;59.928;30.306;2022-09-09T01:13:00;102561.88;;;10.26;100.00
41250;BME280;26984;59.928;30.306;2022-09-09T01:15:31;102559.00;;;10.28;100.00
41250;BME280;26984;59.928;30.306;2022-09-09T01:18:00;102555.94;;;10.23;99.54
41250;BME280;26984;59.928;30.306;2022-09-09T01:20:31;102557.63;;;10.24;99.50
41250;BME280;26984;59.928;30.306;2022-09-09T01:23:16;102562.19;;;10.31;99.28
41250;BME280;26984;59.928;30.306;2022-09-09T01:26:15;102564.56;;;10.26;98.10
41250;BME280;26984;59.928;30.306;2022-09-09T01:28:46;102560.66;;;10.21;98.18
41250;BME280;26984;59.928;30.306;2022-09-09T01:31:17;102561.50;;;10.21;98.52
41250;BME280;26984;59.928;30.306;2022-09-09T01:33:48;102564.03;;;10.23;98.92
41250;BME280;26984;59.928;30.306;2022-09-09T01:36:18;102563.69;;;10.18;99.58
41250;BME280;26984;59.928;30.306;2022-09-09T01:38:50;102560.31;;;10.07;99.54
41250;BME280;26984;59.928;30.306;2022-09-09T01:41:20;102561.16;;;10.08;99.79
41250;BME280;26984;59.928;30.306;2022-09-09T01:43:59;102557.94;;;10.13;100.00
41250;BME280;26984;59.928;30.306;2022-09-09T01:46:28;102555.94;;;10.15;100.00
41250;BME280;26984;59.928;30.306;2022-09-09T01:48:56;102564.19;;;10.13;100.00
41250;BME280;26984;59.928;30.306;2022-09-09T01:51:25;102556.28;;;10.20;99.81
41250;BME280;26984;59.928;30.306;2022-09-09T01:53:53;102557.28;;;10.11;99.82
41250;BME280;26984;59.928;30.306;2022-09-09T01:56:28;102557.94;;;10.13;99.45
41250;BME280;26984;59.928;30.306;2022-09-09T01:59:08;102564.00;;;10.06;99.25
41250;BME280;26984;59.928;30.306;2022-09-09T02:01:50;102564.00;;;10.06;99.37
41250;BME280;26984;59.928;30.306;2022-09-09T02:04:30;102558.97;;;10.12;99.01
41250;BME280;26984;59.928;30.306;2022-09-09T02:07:05;102563.16;;;10.06;99.33
41250;BME280;26984;59.928;30.306;2022-09-09T02:09:37;102562.84;;;10.09;99.82
41250;BME280;26984;59.928;30.306;2022-09-09T02:12:13;102562.84;;;10.17;99.51
41250;BME280;26984;59.928;30.306;2022-09-09T02:14:55;102569.75;;;10.12;99.50
41250;BME280;26984;59.928;30.306;2022-09-09T02:17:30;102565.19;;;10.12;99.82
41250;BME280;26984;59.928;30.306;2022-09-09T02:20:09;102558.78;;;10.05;100.00
41250;BME280;26984;59.928;30.306;2022-09-09T02:22:59;102567.38;;;10.17;100.00
41250;BME280;26984;59.928;30.306;2022-09-09T02:25:32;102568.72;;;10.21;100.00
41250;BME280;26984;59.928;30.306;2022-09-09T02:28:13;102565.88;;;10.22;100.00
41250;BME280;26984;59.928;30.306;2022-09-09T02:30:43;102562.91;;;10.25;99.83
41250;BME280;26984;59.928;30.306;2022-09-09T02:33:16;102560.50;;;10.22;98.76
41250;BME280;26984;59.928;30.306;2022-09-09T02:35:48;102559.81;;;10.20;97.55
41250;BME280;26984;59.928;30.306;2022-09-09T02:38:23;102564.88;;;10.23;96.24
41250;BME280;26984;59.928;30.306;2022-09-09T02:41:14;102556.59;;;10.17;95.95
41250;BME280;26984;59.928;30.306;2022-09-09T02:43:56;102563.34;;;10.13;95.83
41250;BME280;26984;59.928;30.306;2022-09-09T02:46:31;102557.81;;;10.14;95.97
41250;BME280;26984;59.928;30.306;2022-09-09T02:49:03;102551.91;;;10.11;95.52
41250;BME280;26984;59.928;30.306;2022-09-09T02:51:40;102550.72;;;10.05;95.29
41250;BME280;26984;59.928;30.306;2022-09-09T02:54:16;102556.78;;;10.07;95.51
41250;BME280;26984;59.928;30.306;2022-09-09T02:56:49;102553.41;;;9.97;95.20
41250;BME280;26984;59.928;30.306;2022-09-09T02:59:25;102554.88;;;9.83;95.82
41250;BME280;26984;59.928;30.306;2022-09-09T03:01:55;102546.75;;;9.67;96.84
41250;BME280;26984;59.928;30.306;2022-09-09T03:04:24;102557.50;;;9.67;97.57
41250;BME280;26984;59.928;30.306;2022-09-09T03:06:52;102555.66;;;9.67;98.87
41250;BME280;26984;59.928;30.306;2022-09-09T03:09:21;102548.25;;;9.61;98.22
41250;BME280;26984;59.928;30.306;2022-09-09T03:11:49;102552.81;;;9.61;99.44
41250;BME280;26984;59.928;30.306;2022-09-09T03:14:20;102550.13;;;9.61;99.33
41250;BME280;26984;59.928;30.306;2022-09-09T03:16:57;102551.28;;;9.66;99.83
41250;BME280;26984;59.928;30.306;2022-09-09T03:19:29;102552.50;;;9.72;99.82
41250;BME280;26984;59.928;30.306;2022-09-09T03:21:57;102553.00;;;9.75;99.34
41250;BME280;26984;59.928;30.306;2022-09-09T03:24:28;102550.47;;;9.74;99.38
41250;BME280;26984;59.928;30.306;2022-09-09T03:26:57;102556.22;;;9.79;99.29
41250;BME280;26984;59.928;30.306;2022-09-09T03:29:26;102557.06;;;9.79;99.65
41250;BME280;26984;59.928;30.306;2022-09-09T03:31:59;102552.50;;;9.80;99.56
41250;BME280;26984;59.928;30.306;2022-09-09T03:34:27;102548.47;;;9.84;100.00
41250;BME280;26984;59.928;30.306;2022-09-09T03:36:57;102547.00;;;9.90;99.60
41250;BME280;26984;59.928;30.306;2022-09-09T03:39:27;102547.00;;;9.98;99.41
41250;BME280;26984;59.928;30.306;2022-09-09T03:41:55;102551.03;;;10.02;98.74
41250;BME280;26984;59.928;30.306;2022-09-09T03:44:25;102565.38;;;10.11;97.67
41250;BME280;26984;59.928;30.306;2022-09-09T03:46:54;102559.31;;;10.08;97.14
41250;BME280;26984;59.928;30.306;2022-09-09T03:49:24;102557.13;;;10.04;97.31
41250;BME280;26984;59.928;30.306;2022-09-09T03:51:55;102566.16;;;9.95;98.01
41250;BME280;26984;59.928;30.306;2022-09-09T03:54:23;102566.16;;;9.87;98.53
41250;BME280;26984;59.928;30.306;2022-09-09T03:56:57;102560.25;;;9.83;99.25
41250;BME280;26984;59.928;30.306;2022-09-09T03:59:27;102575.56;;;9.82;99.89
41250;BME280;26984;59.928;30.306;2022-09-09T04:01:55;102562.31;;;9.89;100.00
41250;BME280;26984;59.928;30.306;2022-09-09T04:04:31;102563.28;;;9.88;100.00
41250;BME280;26984;59.928;30.306;2022-09-09T04:06:59;102567.19;;;9.94;100.00
41250;BME280;26984;59.928;30.306;2022-09-09T04:09:27;102566.84;;;9.97;100.00
41250;BME280;26984;59.928;30.306;2022-09-09T04:11:56;102566.16;;;9.87;100.00
41250;BME280;26984;59.928;30.306;2022-09-09T04:14:25;102566.16;;;9.78;100.00
41250;BME280;26984;59.928;30.306;2022-09-09T04:16:55;102567.50;;;9.82;100.00
41250;BME280;26984;59.928;30.306;2022-09-09T04:19:26;102571.88;;;9.83;100.00
41250;BME280;26984;59.928;30.306;2022-09-09T04:21:58;102579.13;;;9.91;100.00
41250;BME280;26984;59.928;30.306;2022-09-09T04:24:27;102569.88;;;9.86;100.00
41250;BME280;26984;59.928;30.306;2022-09-09T04:26:56;102574.22;;;9.78;100.00
41250;BME280;26984;59.928;30.306;2022-09-09T04:29:24;102573.84;;;9.73;100.00
41250;BME280;26984;59.928;30.306;2022-09-09T04:31:52;102577.06;;;9.85;100.00
41250;BME280;26984;59.928;30.306;2022-09-09T04:34:19;102583.31;;;9.86;100.00
41250;BME280;26984;59.928;30.306;2022-09-09T04:36:47;102575.09;;;9.95;100.00
41250;BME280;26984;59.928;30.306;2022-09-09T04:39:16;102580.16;;;9.98;100.00
41250;BME280;26984;59.928;30.306;2022-09-09T04:41:46;102577.78;;;9.95;100.00
41250;BME280;26984;59.928;30.306;2022-09-09T04:44:15;102576.28;;;9.93;100.00
41250;BME280;26984;59.928;30.306;2022-09-09T04:46:43;102569.50;;;9.89;100.00
41250;BME280;26984;59.928;30.306;2022-09-09T04:49:11;102566.81;;;9.89;100.00
41250;BME280;26984;59.928;30.306;2022-09-09T04:51:38;102567.84;;;9.88;100.00
41250;BME280;26984;59.928;30.306;2022-09-09T04:54:06;102569.00;;;9.85;100.00
41250;BME280;26984;59.928;30.306;2022-09-09T04:56:34;102565.66;;;9.83;100.00
41250;BME280;26984;59.928;30.306;2022-09-09T04:59:02;102566.28;;;9.77;100.00
41250;BME280;26984;59.928;30.306;2022-09-09T05:01:37;102569.50;;;9.80;100.00
41250;BME280;26984;59.928;30.306;2022-09-09T05:04:05;102574.75;;;9.82;100.00
41250;BME280;26984;59.928;30.306;2022-09-09T05:06:34;102570.84;;;9.84;100.00
41250;BME280;26984;59.928;30.306;2022-09-09T05:09:03;102579.63;;;9.95;100.00
41250;BME280;26984;59.928;30.306;2022-09-09T05:11:31;102570.72;;;9.86;100.00
41250;BME280;26984;59.928;30.306;2022-09-09T05:14:07;102572.41;;;9.95;100.00
41250;BME280;26984;59.928;30.306;2022-09-09T05:16:37;102581.16;;;10.05;100.00
41250;BME280;26984;59.928;30.306;2022-09-09T05:19:05;102579.91;;;10.26;100.00
41250;BME280;26984;59.928;30.306;2022-09-09T05:21:46;102578.22;;;10.33;100.00
41250;BME280;26984;59.928;30.306;2022-09-09T05:24:16;102575.34;;;10.26;100.00
41250;BME280;26984;59.928;30.306;2022-09-09T05:26:47;102578.03;;;10.26;100.00
41250;BME280;26984;59.928;30.306;2022-09-09T05:29:18;102584.13;;;10.28;100.00
41250;BME280;26984;59.928;30.306;2022-09-09T05:31:46;102586.44;;;10.31;100.00
41250;BME280;26984;59.928;30.306;2022-09-09T05:34:19;102580.06;;;10.41;100.00
41250;BME280;26984;59.928;30.306;2022-09-09T05:36:50;102585.97;;;10.44;100.00
41250;BME280;26984;59.928;30.306;2022-09-09T05:39:21;102580.59;;;10.61;100.00
41250;BME280;26984;59.928;30.306;2022-09-09T05:41:48;102585.47;;;10.65;100.00
41250;BME280;26984;59.928;30.306;2022-09-09T05:47:50;102594.56;;;10.64;100.00
41250;BME280;26984;59.928;30.306;2022-09-09T05:50:19;102585.97;;;10.61;100.00
41250;BME280;26984;59.928;30.306;2022-09-09T05:52:54;102583.78;;;10.64;100.00
41250;BME280;26984;59.928;30.306;2022-09-09T05:55:21;102576.88;;;10.78;100.00
41250;BME280;26984;59.928;30.306;2022-09-09T05:57:49;102576.00;;;10.77;100.00
41250;BME280;26984;59.928;30.306;2022-09-09T06:00:18;102577.88;;;10.69;100.00
41250;BME280;26984;59.928;30.306;2022-09-09T06:02:51;102576.84;;;10.86;100.00
41250;BME280;26984;59.928;30.306;2022-09-09T06:05:20;102577.69;;;10.87;100.00
41250;BME280;26984;59.928;30.306;2022-09-09T06:07:51;102583.91;;;10.95;100.00
41250;BME280;26984;59.928;30.306;2022-09-09T06:10:19;102583.38;;;11.08;100.00
41250;BME280;26984;59.928;30.306;2022-09-09T06:12:47;102584.06;;;11.10;100.00
41250;BME280;26984;59.928;30.306;2022-09-09T06:15:15;102581.72;;;11.07;100.00
41250;BME280;26984;59.928;30.306;2022-09-09T06:17:43;102589.09;;;11.13;100.00
41250;BME280;26984;59.928;30.306;2022-09-09T06:20:14;102586.06;;;11.24;98.01
41250;BME280;26984;59.928;30.306;2022-09-09T06:22:44;102586.22;;;11.23;98.23
41250;BME280;26984;59.928;30.306;2022-09-09T06:25:12;102583.84;;;11.28;98.04
41250;BME280;26984;59.928;30.306;2022-09-09T06:27:40;102585.09;;;11.48;95.11
41250;BME280;26984;59.928;30.306;2022-09-09T06:30:08;102586.06;;;11.64;95.30
41250;BME280;26984;59.928;30.306;2022-09-09T06:32:37;102589.50;;;11.81;94.06
41250;BME280;26984;59.928;30.306;2022-09-09T06:35:05;102588.84;;;11.87;96.25
41250;BME280;26984;59.928;30.306;2022-09-09T06:37:36;102572.00;;;11.77;96.63
41250;BME280;26984;59.928;30.306;2022-09-09T06:40:03;102592.03;;;11.90;96.79
41250;BME280;26984;59.928;30.306;2022-09-09T06:42:31;102586.97;;;12.18;96.24
41250;BME280;26984;59.928;30.306;2022-09-09T06:45:20;102573.72;;;12.32;92.21
41250;BME280;26984;59.928;30.306;2022-09-09T06:47:54;102586.97;;;12.41;89.73
41250;BME280;26984;59.928;30.306;2022-09-09T06:50:22;102577.72;;;12.36;90.21
41250;BME280;26984;59.928;30.306;2022-09-09T06:52:51;102586.75;;;12.28;91.05
41250;BME280;26984;59.928;30.306;2022-09-09T06:55:25;102581.16;;;12.30;90.48
41250;BME280;26984;59.928;30.306;2022-09-09T06:57:53;102580.97;;;12.31;90.28
41250;BME280;26984;59.928;30.306;2022-09-09T07:00:22;102590.22;;;12.14;91.22
41250;BME280;26984;59.928;30.306;2022-09-09T07:02:50;102593.06;;;12.12;91.07
41250;BME280;26984;59.928;30.306;2022-09-09T07:05:18;102585.88;;;12.05;91.58
41250;BME280;26984;59.928;30.306;2022-09-09T07:07:47;102602.63;;;12.00;92.40
41250;BME280;26984;59.928;30.306;2022-09-09T07:10:19;102596.25;;;11.93;91.56
41250;BME280;26984;59.928;30.306;2022-09-09T07:12:50;102601.00;;;11.83;91.90
41250;BME280;26984;59.928;30.306;2022-09-09T07:15:17;102599.22;;;11.67;93.81
41250;BME280;26984;59.928;30.306;2022-09-09T07:18:26;102607.81;;;11.62;93.91
41250;BME280;26984;59.928;30.306;2022-09-09T07:20:54;102604.34;;;11.54;94.30
41250;BME280;26984;59.928;30.306;2022-09-09T07:23:24;102607.53;;;11.49;94.12
41250;BME280;26984;59.928;30.306;2022-09-09T07:25:53;102614.44;;;11.51;93.41
41250;BME280;26984;59.928;30.306;2022-09-09T07:28:21;102611.41;;;11.55;92.49
41250;BME280;26984;59.928;30.306;2022-09-09T07:30:55;102604.63;;;11.59;91.76
41250;BME280;26984;59.928;30.306;2022-09-09T07:33:23;102618.47;;;11.56;92.26
41250;BME280;26984;59.928;30.306;2022-09-09T07:35:51;102618.97;;;11.59;90.47
41250;BME280;26984;59.928;30.306;2022-09-09T07:38:20;102617.78;;;11.62;91.87
41250;BME280;26984;59.928;30.306;2022-09-09T07:40:49;102617.25;;;11.74;92.11
41250;BME280;26984;59.928;30.306;2022-09-09T07:43:18;102618.13;;;12.06;91.56
41250;BME280;26984;59.928;30.306;2022-09-09T07:45:47;102620.59;;;12.16;89.36
41250;BME280;26984;59.928;30.306;2022-09-09T07:48:16;102616.88;;;12.17;88.70
41250;BME280;26984;59.928;30.306;2022-09-09T07:50:43;102611.34;;;12.33;87.64
41250;BME280;26984;59.928;30.306;2022-09-09T07:53:11;102617.72;;;12.40;86.69
41250;BME280;26984;59.928;30.306;2022-09-09T07:55:38;102615.06;;;12.55;83.52
41250;BME280;26984;59.928;30.306;2022-09-09T07:58:06;102620.06;;;12.66;83.52
41250;BME280;26984;59.928;30.306;2022-09-09T08:00:35;102622.34;;;12.78;83.01
41250;BME280;26984;59.928;30.306;2022-09-09T08:03:05;102615.44;;;12.90;83.63
41250;BME280;26984;59.928;30.306;2022-09-09T08:05:33;102612.03;;;13.11;81.67
41250;BME280;26984;59.928;30.306;2022-09-09T08:08:01;102616.84;;;13.24;79.78
41250;BME280;26984;59.928;30.306;2022-09-09T08:10:29;102617.19;;;13.06;78.20
41250;BME280;26984;59.928;30.306;2022-09-09T08:12:58;102611.91;;;12.89;79.40
41250;BME280;26984;59.928;30.306;2022-09-09T08:15:25;102619.00;;;12.90;77.92
41250;BME280;26984;59.928;30.306;2022-09-09T08:17:54;102617.94;;;12.77;78.83
41250;BME280;26984;59.928;30.306;2022-09-09T08:20:23;102622.31;;;12.63;81.06
41250;BME280;26984;59.928;30.306;2022-09-09T08:22:51;102619.31;;;12.73;79.72
41250;BME280;26984;59.928;30.306;2022-09-09T08:25:18;102628.72;;;12.62;79.81
41250;BME280;26984;59.928;30.306;2022-09-09T08:27:46;102626.31;;;12.44;79.58
41250;BME280;26984;59.928;30.306;2022-09-09T08:30:14;102614.19;;;12.40;79.16
41250;BME280;26984;59.928;30.306;2022-09-09T08:32:42;102631.47;;;12.31;79.97
41250;BME280;26984;59.928;30.306;2022-09-09T08:35:11;102624.63;;;12.43;78.36
41250;BME280;26984;59.928;30.306;2022-09-09T08:37:39;102621.06;;;12.65;76.69
41250;BME280;26984;59.928;30.306;2022-09-09T08:40:08;102625.63;;;12.88;75.70
41250;BME280;26984;59.928;30.306;2022-09-09T08:42:58;102614.16;;;13.24;70.28
41250;BME280;26984;59.928;30.306;2022-09-09T08:45:39;102619.22;;;13.18;68.55
41250;BME280;26984;59.928;30.306;2022-09-09T08:48:13;102617.19;;;13.06;70.46
41250;BME280;26984;59.928;30.306;2022-09-09T08:50:46;102619.66;;;12.92;70.41
41250;BME280;26984;59.928;30.306;2022-09-09T08:53:20;102612.19;;;12.94;69.66
41250;BME280;26984;59.928;30.306;2022-09-09T08:55:51;102606.88;;;12.86;70.68
41250;BME280;26984;59.928;30.306;2022-09-09T08:58:27;102619.31;;;12.96;71.45
41250;BME280;26984;59.928;30.306;2022-09-09T09:01:03;102611.84;;;13.12;71.60
41250;BME280;26984;59.928;30.306;2022-09-09T09:03:47;102619.31;;;13.10;68.56
41250;BME280;26984;59.928;30.306;2022-09-09T09:06:23;102617.06;;;12.99;67.80
41250;BME280;26984;59.928;30.306;2022-09-09T09:08:57;102627.59;;;13.09;68.63
41250;BME280;26984;59.928;30.306;2022-09-09T09:11:35;102634.41;;;13.28;67.44
41250;BME280;26984;59.928;30.306;2022-09-09T09:14:05;102616.28;;;13.43;66.11
41250;BME280;26984;59.928;30.306;2022-09-09T09:16:38;102625.34;;;13.50;65.50
41250;BME280;26984;59.928;30.306;2022-09-09T09:19:07;102618.25;;;13.49;62.35
41250;BME280;26984;59.928;30.306;2022-09-09T09:21:39;102610.22;;;13.56;63.41
41250;BME280;26984;59.928;30.306;2022-09-09T09:24:13;102619.28;;;13.63;58.41
41250;BME280;26984;59.928;30.306;2022-09-09T09:26:46;102614.16;;;13.38;58.71
41250;BME280;26984;59.928;30.306;2022-09-09T09:29:15;102605.81;;;13.40;58.20
41250;BME280;26984;59.928;30.306;2022-09-09T09:31:44;102613.13;;;13.25;58.71
41250;BME280;26984;59.928;30.306;2022-09-09T09:34:14;102603.72;;;13.12;58.27
41250;BME280;26984;59.928;30.306;2022-09-09T09:36:46;102599.81;;;13.15;56.38
41250;BME280;26984;59.928;30.306;2022-09-09T09:39:23;102603.31;;;13.24;58.04
41250;BME280;26984;59.928;30.306;2022-09-09T09:41:51;102603.09;;;13.10;57.31
41250;BME280;26984;59.928;30.306;2022-09-09T09:44:23;102603.19;;;13.17;57.77
41250;BME280;26984;59.928;30.306;2022-09-09T09:46:52;102602.75;;;13.28;57.57
41250;BME280;26984;59.928;30.306;2022-09-09T09:49:20;102603.38;;;13.30;57.25
41250;BME280;26984;59.928;30.306;2022-09-09T09:51:49;102604.78;;;13.26;56.45
41250;BME280;26984;59.928;30.306;2022-09-09T09:54:22;102605.91;;;13.17;55.71
41250;BME280;26984;59.928;30.306;2022-09-09T09:57:07;102594.59;;;13.13;58.29
41250;BME280;26984;59.928;30.306;2022-09-09T09:59:35;102603.31;;;13.24;57.06
41250;BME280;26984;59.928;30.306;2022-09-09T10:02:13;102595.91;;;13.17;56.93
41250;BME280;26984;59.928;30.306;2022-09-09T10:04:42;102601.94;;;13.19;56.19
41250;BME280;26984;59.928;30.306;2022-09-09T10:07:17;102591.59;;;13.23;56.63
41250;BME280;26984;59.928;30.306;2022-09-09T10:09:44;102590.25;;;13.27;56.60
41250;BME280;26984;59.928;30.306;2022-09-09T10:12:15;102594.41;;;13.15;57.74
41250;BME280;26984;59.928;30.306;2022-09-09T10:14:46;102586.38;;;12.92;59.60
41250;BME280;26984;59.928;30.306;2022-09-09T10:17:18;102594.53;;;12.84;59.97
41250;BME280;26984;59.928;30.306;2022-09-09T10:19:52;102592.00;;;12.67;61.67
41250;BME280;26984;59.928;30.306;2022-09-09T10:22:28;102595.31;;;12.55;62.30
41250;BME280;26984;59.928;30.306;2022-09-09T10:25:12;102592.78;;;12.53;64.08
41250;BME280;26984;59.928;30.306;2022-09-09T10:27:46;102595.66;;;12.75;65.35
41250;BME280;26984;59.928;30.306;2022-09-09T10:30:17;102592.88;;;12.98;63.23
41250;BME280;26984;59.928;30.306;2022-09-09T10:32:46;102584.78;;;12.98;61.79
41250;BME280;26984;59.928;30.306;2022-09-09T10:35:21;102586.16;;;12.93;62.74
41250;BME280;26984;59.928;30.306;2022-09-09T10:38:01;102583.47;;;13.08;61.90
41250;BME280;26984;59.928;30.306;2022-09-09T10:40:31;102585.34;;;13.23;61.78
41250;BME280;26984;59.928;30.306;2022-09-09T10:43:02;102584.28;;;13.32;60.91
41250;BME280;26984;59.928;30.306;2022-09-09T10:45:33;102582.19;;;13.34;60.83
41250;BME280;26984;59.928;30.306;2022-09-09T10:48:08;102582.41;;;13.32;61.24
41250;BME280;26984;59.928;30.306;2022-09-09T10:50:50;102580.53;;;13.48;62.06
41250;BME280;26984;59.928;30.306;2022-09-09T10:53:24;102577.25;;;13.67;60.49
41250;BME280;26984;59.928;30.306;2022-09-09T10:55:57;102586.91;;;13.76;60.14
41250;BME280;26984;59.928;30.306;2022-09-09T10:58:28;102581.72;;;13.60;60.36
41250;BME280;26984;59.928;30.306;2022-09-09T11:01:00;102577.44;;;13.51;61.10
41250;BME280;26984;59.928;30.306;2022-09-09T11:03:29;102580.91;;;13.59;61.33
41250;BME280;26984;59.928;30.306;2022-09-09T11:05:57;102575.81;;;13.71;61.77
41250;BME280;26984;59.928;30.306;2022-09-09T11:08:29;102571.59;;;13.83;59.71
41250;BME280;26984;59.928;30.306;2022-09-09T11:10:59;102568.41;;;13.80;60.03
41250;BME280;26984;59.928;30.306;2022-09-09T11:13:30;102567.75;;;13.93;59.56
41250;BME280;26984;59.928;30.306;2022-09-09T11:16:04;102565.69;;;13.95;60.00
41250;BME280;26984;59.928;30.306;2022-09-09T11:18:32;102564.31;;;13.84;58.34
41250;BME280;26984;59.928;30.306;2022-09-09T11:21:03;102570.38;;;13.86;59.05
41250;BME280;26984;59.928;30.306;2022-09-09T11:23:37;102572.66;;;14.04;58.12
41250;BME280;26984;59.928;30.306;2022-09-09T11:26:06;102568.06;;;14.04;57.53
41250;BME280;26984;59.928;30.306;2022-09-09T11:28:40;102568.97;;;14.11;57.22
41250;BME280;26984;59.928;30.306;2022-09-09T11:31:18;102562.59;;;14.19;57.43
41250;BME280;26984;59.928;30.306;2022-09-09T11:33:56;102568.06;;;14.47;56.67
41250;BME280;26984;59.928;30.306;2022-09-09T11:42:20;102555.19;;;15.05;55.05
41250;BME280;26984;59.928;30.306;2022-09-09T11:44:47;102549.50;;;15.00;53.62
41250;BME280;26984;59.928;30.306;2022-09-09T11:47:16;102557.28;;;14.75;54.41
41250;BME280;26984;59.928;30.306;2022-09-09T11:49:47;102553.34;;;14.78;54.52
41250;BME280;26984;59.928;30.306;2022-09-09T11:52:20;102549.78;;;14.77;54.05
41250;BME280;26984;59.928;30.306;2022-09-09T11:54:49;102546.13;;;14.64;55.15
41250;BME280;26984;59.928;30.306;2022-09-09T11:57:22;102556.66;;;14.73;54.66
41250;BME280;26984;59.928;30.306;2022-09-09T11:59:50;102558.31;;;14.74;54.17
41250;BME280;26984;59.928;30.306;2022-09-09T12:02:21;102551.06;;;14.81;53.94
41250;BME280;26984;59.928;30.306;2022-09-09T12:04:54;102556.59;;;14.95;55.14
41250;BME280;26984;59.928;30.306;2022-09-09T12:07:25;102545.72;;;15.29;53.15
41250;BME280;26984;59.928;30.306;2022-09-09T12:09:55;102543.63;;;15.31;52.39
41250;BME280;26984;59.928;30.306;2022-09-09T12:12:33;102546.31;;;15.25;52.54
41250;BME280;26984;59.928;30.306;2022-09-09T12:15:18;102534.41;;;15.19;53.62
41250;BME280;26984;59.928;30.306;2022-09-09T12:17:46;102537.00;;;15.41;52.32
41250;BME280;26984;59.928;30.306;2022-09-09T12:20:16;102529.00;;;15.32;51.69
41250;BME280;26984;59.928;30.306;2022-09-09T12:22:47;102531.59;;;15.41;51.91
41250;BME280;26984;59.928;30.306;2022-09-09T12:25:22;102531.00;;;15.52;50.50
41250;BME280;26984;59.928;30.306;2022-09-09T12:34:55;102532.22;;;15.49;50.28
41250;BME280;26984;59.928;30.306;2022-09-09T12:37:27;102531.00;;;15.52;50.43
41250;BME280;26984;59.928;30.306;2022-09-09T12:39:56;102527.44;;;15.58;51.22
41250;BME280;26984;59.928;30.306;2022-09-09T12:42:24;102529.63;;;15.69;50.88
41250;BME280;26984;59.928;30.306;2022-09-09T12:44:53;102527.25;;;15.60;50.08
41250;BME280;26984;59.928;30.306;2022-09-09T12:47:21;102527.19;;;15.46;50.50
41250;BME280;26984;59.928;30.306;2022-09-09T12:49:51;102525.03;;;15.28;50.76
41250;BME280;26984;59.928;30.306;2022-09-09T12:52:21;102525.53;;;15.04;50.83
41250;BME280;26984;59.928;30.306;2022-09-09T12:54:50;102521.72;;;14.64;52.61
41250;BME280;26984;59.928;30.306;2022-09-09T12:57:19;102519.44;;;14.67;53.33
41250;BME280;26984;59.928;30.306;2022-09-09T12:59:49;102521.63;;;14.78;53.89
41250;BME280;26984;59.928;30.306;2022-09-09T13:02:18;102510.06;;;14.98;52.80
41250;BME280;26984;59.928;30.306;2022-09-09T13:04:46;102512.69;;;15.19;52.08
41250;BME280;26984;59.928;30.306;2022-09-09T13:07:14;102511.13;;;15.45;51.97
41250;BME280;26984;59.928;30.306;2022-09-09T13:09:43;102510.09;;;15.52;51.86
41250;BME280;26984;59.928;30.306;2022-09-09T13:12:13;102521.44;;;15.21;54.42
41250;BME280;26984;59.928;30.306;2022-09-09T13:14:42;102509.41;;;14.96;55.49
41250;BME280;26984;59.928;30.306;2022-09-09T13:17:17;102511.06;;;14.97;55.81